Time;durP1;ratioP1;P1;durP2;ratioP2;P2;SDS_P1;SDS_P2;PMS_P1;PMS_P2;Temp;Humidity;BMP_temperature;BMP_pressure;BME280_temperature;BME280_humidity;BME280_pressure;Samples;Min_cycle;Max_cycle;Signal;HPM_P1;HPM_P2
2023/01/17 00:01:46;;;;;;;;;;;;;;;4.52;65.29;97728.28;4188254;28;20027;-62
2023/01/17 00:10:46;;;;;;;;;;;;;;;4.44;65.82;97707.16;4189222;28;19928;-60
2023/01/17 00:12:50;;;;;;;;;;;;;;;4.43;65.69;97713.50;4188879;28;20054;-61
2023/01/17 00:14:53;;;;;;;;;;;;;;;4.41;65.69;97710.25;4189503;28;20027;-62
2023/01/17 00:16:55;;;;;;;;;;;;;;;4.41;65.96;97710.25;4188301;28;20367;-61
2023/01/17 00:26:04;;;;;;;;;;;;;;;4.37;66.16;97698.31;4205759;28;20375;-62
2023/01/17 01:35:19;;;;;;;;;;;;;;;3.93;67.75;97666.00;4187995;28;19978;-62
2023/01/17 01:37:21;;;;;;;;;;;;;;;3.92;67.80;97661.72;4187142;28;20020;-62
2023/01/17 01:39:23;;;;;;;;;;;;;;;3.91;67.95;97660.88;4187663;28;20036;-62
2023/01/17 01:41:25;;;;;;;;;;;;;;;3.91;67.90;97660.88;4186677;28;20411;-62
2023/01/17 01:43:40;;;;;;;;;;;;;;;3.90;68.01;97656.59;4188280;28;20016;-62
2023/01/17 01:45:44;;;;;;;;;;;;;;;3.89;67.84;97651.47;4187515;28;20011;-62
2023/01/17 01:47:46;;;;;;;;;;;;;;;3.88;67.92;97652.47;4185767;28;20015;-62
2023/01/17 01:49:49;;;;;;;;;;;;;;;3.88;67.97;97653.28;4187645;28;20016;-61
2023/01/17 01:51:52;;;;;;;;;;;;;;;3.88;67.96;97649.81;4188975;28;20040;-62
2023/01/17 01:53:58;;;;;;;;;;;;;;;3.88;68.06;97645.28;4204101;28;20011;-62
2023/01/17 01:56:00;;;;;;;;;;;;;;;3.85;67.91;97637.69;4203979;28;19947;-62
2023/01/17 01:58:03;;;;;;;;;;;;;;;3.85;68.21;97648.38;4203622;28;20019;-62
2023/01/17 02:00:06;;;;;;;;;;;;;;;3.85;68.09;97645.69;4203374;28;19936;-62
2023/01/17 02:02:13;;;;;;;;;;;;;;;3.85;68.30;97651.03;4203136;28;20007;-61
2023/01/17 02:04:15;;;;;;;;;;;;;;;3.87;68.12;97653.50;4204124;28;20027;-62
2023/01/17 02:06:26;;;;;;;;;;;;;;;3.86;68.34;97649.19;4202680;28;20027;-62
2023/01/17 02:08:28;;;;;;;;;;;;;;;3.87;68.15;97648.16;4202760;28;20026;-62
2023/01/17 02:10:31;;;;;;;;;;;;;;;3.89;68.31;97643.44;4203812;28;20386;-62
2023/01/17 02:12:33;;;;;;;;;;;;;;;3.85;67.97;97640.34;4202845;28;20015;-62
2023/01/17 02:14:35;;;;;;;;;;;;;;;3.85;68.28;97645.69;4203736;28;20398;-62
2023/01/17 02:16:42;;;;;;;;;;;;;;;3.85;68.36;97637.69;4202010;28;20435;-61
2023/01/17 02:18:47;;;;;;;;;;;;;;;3.87;68.19;97641.00;4203630;28;20023;-62
2023/01/17 02:20:56;;;;;;;;;;;;;;;3.87;68.04;97634.81;4203369;28;20496;-62
2023/01/17 02:23:13;;;;;;;;;;;;;;;3.88;68.02;97633.78;4191641;28;20394;-62
2023/01/17 02:25:20;;;;;;;;;;;;;;;3.90;68.12;97632.56;4186726;28;20343;-62
2023/01/17 02:27:24;;;;;;;;;;;;;;;3.92;67.92;97629.69;4186299;28;20015;-61
2023/01/17 02:29:53;;;;;;;;;;;;;;;3.89;68.22;97636.25;4185889;28;20268;-61
2023/01/17 02:31:57;;;;;;;;;;;;;;;3.89;67.98;97636.25;4186564;28;20007;-61
2023/01/17 02:34:00;;;;;;;;;;;;;;;3.90;68.36;97626.38;4185798;28;20027;-62
2023/01/17 02:36:04;;;;;;;;;;;;;;;3.89;68.11;97641.59;4186213;28;20015;-62
2023/01/17 02:38:08;;;;;;;;;;;;;;;3.89;68.17;97633.56;4185592;28;20015;-62
2023/01/17 02:40:12;;;;;;;;;;;;;;;3.92;68.20;97635.00;4186660;28;20024;-62
2023/01/17 02:42:14;;;;;;;;;;;;;;;3.94;67.91;97630.28;4185844;28;20022;-62
2023/01/17 02:44:17;;;;;;;;;;;;;;;3.92;67.92;97627.81;4186684;28;20020;-62
2023/01/17 02:46:19;;;;;;;;;;;;;;;3.87;67.94;97624.97;4187434;28;20019;-61
2023/01/17 02:48:22;;;;;;;;;;;;;;;3.87;68.11;97627.63;4200572;28;20350;-62
2023/01/17 02:50:25;;;;;;;;;;;;;;;3.87;68.20;97634.81;4203028;28;20031;-62
2023/01/17 02:52:34;;;;;;;;;;;;;;;3.85;68.30;97635.00;4202608;28;20047;-62
2023/01/17 02:54:44;;;;;;;;;;;;;;;3.86;68.32;97634.00;4203103;28;20027;-61
2023/01/17 02:56:48;;;;;;;;;;;;;;;3.87;68.25;97642.81;4200337;28;20040;-62
2023/01/17 02:58:55;;;;;;;;;;;;;;;3.90;68.41;97639.72;4186872;28;19925;-61
2023/01/17 03:01:02;;;;;;;;;;;;;;;3.90;68.16;97639.72;4185914;28;20637;-62
2023/01/17 03:03:07;;;;;;;;;;;;;;;3.90;68.13;97643.25;4197976;28;20019;-62
2023/01/17 03:05:12;;;;;;;;;;;;;;;3.93;68.13;97644.66;4202530;28;20098;-62
2023/01/17 03:07:16;;;;;;;;;;;;;;;3.92;68.25;97641.16;4201878;28;20022;-62
2023/01/17 03:09:18;;;;;;;;;;;;;;;3.94;68.25;97651.63;4203486;28;20007;-61
2023/01/17 03:11:20;;;;;;;;;;;;;;;3.95;68.27;97647.94;4202648;28;20023;-62
2023/01/17 03:13:22;;;;;;;;;;;;;;;3.99;68.33;97643.00;4202686;28;20384;-62
2023/01/17 03:15:24;;;;;;;;;;;;;;;3.98;68.41;97639.50;4203318;28;20011;-62
2023/01/17 03:17:31;;;;;;;;;;;;;;;3.96;68.65;97642.38;4203049;28;20020;-62
2023/01/17 03:19:33;;;;;;;;;;;;;;;3.99;68.88;97637.66;4203682;28;19928;-62
2023/01/17 03:21:37;;;;;;;;;;;;;;;4.01;69.03;97649.75;4202526;28;20031;-62
2023/01/17 03:23:38;;;;;;;;;;;;;;;4.02;69.12;97638.03;4203583;28;20015;-62
2023/01/17 03:25:40;;;;;;;;;;;;;;;4.04;69.39;97637.84;4203067;28;20019;-62
2023/01/17 03:27:42;;;;;;;;;;;;;;;4.06;69.27;97641.94;4202830;28;20477;-62
2023/01/17 03:29:44;;;;;;;;;;;;;;;4.07;69.41;97648.09;4205025;28;20010;-62
2023/01/17 03:31:46;;;;;;;;;;;;;;;4.06;69.23;97639.28;4203868;28;20035;-61
2023/01/17 03:33:48;;;;;;;;;;;;;;;4.09;69.49;97640.69;4190141;28;20027;-60
2023/01/17 03:35:50;;;;;;;;;;;;;;;4.10;69.35;97642.34;4189189;28;20032;-62
2023/01/17 03:37:53;;;;;;;;;;;;;;;4.11;69.47;97639.44;4189526;28;20442;-62
2023/01/17 03:39:55;;;;;;;;;;;;;;;4.12;69.61;97640.25;4189949;28;19925;-62
2023/01/17 03:41:57;;;;;;;;;;;;;;;4.13;69.65;97637.38;4187192;28;20027;-61
2023/01/17 03:43:59;;;;;;;;;;;;;;;4.12;69.49;97643.78;4189484;28;20339;-62
2023/01/17 03:46:01;;;;;;;;;;;;;;;4.14;69.54;97638.22;4189703;28;19971;-62
2023/01/17 03:48:05;;;;;;;;;;;;;;;4.15;69.78;97645.19;4200581;28;20007;-62
2023/01/17 03:50:07;;;;;;;;;;;;;;;4.17;69.67;97639.63;4205826;28;20034;-62
2023/01/17 03:52:09;;;;;;;;;;;;;;;4.18;70.05;97639.41;4204233;28;20649;-62
2023/01/17 03:54:12;;;;;;;;;;;;;;;4.20;69.91;97644.53;4206163;28;20012;-61
2023/01/17 03:56:14;;;;;;;;;;;;;;;4.19;69.93;97641.06;4205559;28;20022;-62
2023/01/17 03:58:16;;;;;;;;;;;;;;;4.21;70.29;97652.34;4204703;28;20023;-62
2023/01/17 04:00:19;;;;;;;;;;;;;;;4.23;70.04;97654.81;4205507;28;19928;-61
2023/01/17 04:02:23;;;;;;;;;;;;;;;4.24;70.31;97643.91;4205034;28;20008;-62
2023/01/17 04:04:24;;;;;;;;;;;;;;;4.26;70.05;97649.03;4204809;28;20022;-61
2023/01/17 04:06:27;;;;;;;;;;;;;;;4.27;70.37;97648.84;4205446;28;20103;-62
2023/01/17 04:08:29;;;;;;;;;;;;;;;4.29;70.39;97660.13;4204564;28;20023;-62
2023/01/17 04:10:32;;;;;;;;;;;;;;;4.32;70.31;97650.88;4205384;28;20441;-61
2023/01/17 04:12:34;;;;;;;;;;;;;;;4.38;70.18;97646.53;4204175;28;20015;-62
2023/01/17 04:14:36;;;;;;;;;;;;;;;4.41;70.24;97648.78;4205659;28;20812;-62
2023/01/17 04:16:38;;;;;;;;;;;;;;;4.44;70.17;97651.03;4203254;28;20027;-62
2023/01/17 04:18:40;;;;;;;;;;;;;;;4.47;70.23;97654.09;4206134;28;20035;-62
2023/01/17 04:20:42;;;;;;;;;;;;;;;4.51;70.24;97651.81;4205480;28;19927;-61
2023/01/17 04:22:44;;;;;;;;;;;;;;;4.56;69.67;97657.34;4204454;28;20023;-62
2023/01/17 04:24:46;;;;;;;;;;;;;;;4.59;69.69;97656.91;4205463;28;20007;-62
2023/01/17 04:26:49;;;;;;;;;;;;;;;4.64;69.39;97654.41;4204777;28;20026;-62
2023/01/17 04:28:51;;;;;;;;;;;;;;;4.67;69.56;97656.66;4205750;28;20369;-62
2023/01/17 04:30:53;;;;;;;;;;;;;;;4.67;69.67;97653.97;4204811;28;20016;-60
2023/01/17 04:32:55;;;;;;;;;;;;;;;4.70;69.62;97663.41;4204039;28;20019;-62
2023/01/17 04:34:57;;;;;;;;;;;;;;;4.73;69.80;97662.97;4205313;28;20376;-62
2023/01/17 04:36:59;;;;;;;;;;;;;;;4.74;69.54;97667.31;4204343;28;20019;-61
2023/01/17 04:39:01;;;;;;;;;;;;;;;4.75;69.68;97668.94;4205087;28;20022;-62
2023/01/17 04:41:03;;;;;;;;;;;;;;;4.75;70.10;97668.94;4204750;28;19924;-61
2023/01/17 04:43:07;;;;;;;;;;;;;;;4.77;69.87;97682.09;4204639;28;19999;-61
2023/01/17 04:45:09;;;;;;;;;;;;;;;4.81;69.64;97667.25;4219916;27;20517;-60
2023/01/17 04:47:11;;;;;;;;;;;;;;;4.83;69.74;97679.38;4218874;28;20028;-61
2023/01/17 04:49:13;;;;;;;;;;;;;;;4.86;69.83;97680.81;4204120;28;20011;-61
2023/01/17 04:51:15;;;;;;;;;;;;;;;4.85;69.96;97681.84;4204900;28;20007;-61
2023/01/17 04:53:17;;;;;;;;;;;;;;;4.86;70.09;97683.50;4203925;28;20066;-62
2023/01/17 04:55:19;;;;;;;;;;;;;;;4.84;70.37;97681.03;4205063;28;20018;-62
2023/01/17 04:57:21;;;;;;;;;;;;;;;4.84;70.28;97683.72;4204502;28;20023;-61
2023/01/17 04:59:24;;;;;;;;;;;;;;;4.85;70.31;97693.34;4204495;28;20046;-62
2023/01/17 05:01:26;;;;;;;;;;;;;;;4.87;70.29;97707.34;4204266;28;20432;-61
2023/01/17 05:03:28;;;;;;;;;;;;;;;4.89;70.50;97701.78;4204890;28;20007;-61
2023/01/17 05:05:30;;;;;;;;;;;;;;;4.91;70.92;97717.63;4204591;28;20364;-60
2023/01/17 05:07:32;;;;;;;;;;;;;;;4.92;71.27;97705.88;4203749;28;20027;-62
2023/01/17 05:09:34;;;;;;;;;;;;;;;4.89;71.76;97707.13;4203765;28;20506;-61
2023/01/17 05:11:36;;;;;;;;;;;;;;;4.85;72.40;97704.06;4203873;28;20015;-62
2023/01/17 05:13:38;;;;;;;;;;;;;;;4.86;72.88;97713.72;4204395;28;20507;-62
2023/01/17 05:15:41;;;;;;;;;;;;;;;4.85;72.77;97720.09;4203884;28;20027;-63
2023/01/17 05:17:43;;;;;;;;;;;;;;;4.86;73.01;97715.59;4203530;28;20028;-62
2023/01/17 05:19:45;;;;;;;;;;;;;;;4.88;72.99;97716.19;4203984;28;20051;-62
2023/01/17 05:21:47;;;;;;;;;;;;;;;4.87;72.96;97720.72;4202487;28;20019;-62
2023/01/17 05:23:49;;;;;;;;;;;;;;;4.87;72.98;97728.75;4203818;28;20334;-61
2023/01/17 05:25:51;;;;;;;;;;;;;;;4.86;73.27;97726.28;4205372;28;20375;-62
2023/01/17 05:27:53;;;;;;;;;;;;;;;4.86;73.12;97728.97;4204634;28;20050;-62
2023/01/17 05:29:55;;;;;;;;;;;;;;;4.85;73.38;97738.81;4203900;28;20027;-61
2023/01/17 05:31:58;;;;;;;;;;;;;;;4.88;73.30;97732.22;4203160;28;20453;-62
2023/01/17 05:34:00;;;;;;;;;;;;;;;4.87;73.30;97722.56;4203964;28;20055;-62
2023/01/17 05:36:02;;;;;;;;;;;;;;;4.90;72.95;97745.38;4205337;28;20011;-62
2023/01/17 05:38:04;;;;;;;;;;;;;;;4.93;72.67;97755.66;4203242;28;19982;-62
2023/01/17 05:40:08;;;;;;;;;;;;;;;4.90;72.75;97735.50;4203625;28;20011;-61
2023/01/17 05:42:10;;;;;;;;;;;;;;;4.91;72.90;97750.53;4197011;28;19924;-62
2023/01/17 05:44:13;;;;;;;;;;;;;;;4.93;72.68;97753.78;4186897;28;20018;-63
2023/01/17 05:46:16;;;;;;;;;;;;;;;4.89;72.93;97765.97;4187755;28;20007;-61
2023/01/17 05:48:20;;;;;;;;;;;;;;;4.90;72.50;97764.91;4200723;28;20019;-60
2023/01/17 05:50:22;;;;;;;;;;;;;;;4.91;72.45;97768.44;4204553;28;20472;-61
2023/01/17 05:52:24;;;;;;;;;;;;;;;4.93;72.73;97779.72;4195187;28;20012;-60
2023/01/17 05:54:26;;;;;;;;;;;;;;;4.92;72.49;97770.91;4186192;28;20078;-63
2023/01/17 05:56:28;;;;;;;;;;;;;;;4.88;72.81;97783.84;4188861;28;20362;-61
2023/01/17 05:58:30;;;;;;;;;;;;;;;4.89;72.69;97798.06;4186334;28;20004;-61
2023/01/17 06:00:32;;;;;;;;;;;;;;;4.89;72.70;97787.38;4187591;28;20018;-61
2023/01/17 06:02:34;;;;;;;;;;;;;;;4.90;72.55;97791.66;4186235;28;20466;-60
2023/01/17 06:04:38;;;;;;;;;;;;;;;4.87;72.62;97784.06;4187359;28;20066;-61
2023/01/17 06:06:40;;;;;;;;;;;;;;;4.91;72.68;97795.19;4188426;28;20208;-61
2023/01/17 06:08:42;;;;;;;;;;;;;;;4.89;72.70;97792.72;4205041;28;20039;-61
2023/01/17 06:10:44;;;;;;;;;;;;;;;4.90;72.58;97797.00;4204639;28;20022;-60
2023/01/17 06:12:46;;;;;;;;;;;;;;;4.88;72.41;97807.91;4203642;28;20748;-61
2023/01/17 06:14:48;;;;;;;;;;;;;;;4.86;72.83;97796.63;4203254;28;20024;-58
2023/01/17 06:16:51;;;;;;;;;;;;;;;4.87;72.61;97798.28;4202590;28;20051;-62
2023/01/17 06:18:53;;;;;;;;;;;;;;;4.87;72.57;97803.63;4204485;28;20461;-62
2023/01/17 06:20:56;;;;;;;;;;;;;;;4.85;72.56;97811.00;4204964;28;20011;-60
2023/01/17 06:22:59;;;;;;;;;;;;;;;4.84;72.81;97809.41;4203823;28;20404;-61
2023/01/17 06:25:02;;;;;;;;;;;;;;;4.81;72.91;97806.31;4204454;28;20019;-61
2023/01/17 06:27:04;;;;;;;;;;;;;;;4.80;72.95;97804.69;4203786;28;20023;-61
2023/01/17 06:29:05;;;;;;;;;;;;;;;4.79;73.03;97813.72;4203356;28;20377;-62
2023/01/17 06:31:08;;;;;;;;;;;;;;;4.78;73.06;97820.09;4202811;28;20015;-61
2023/01/17 06:33:10;;;;;;;;;;;;;;;4.77;73.19;97808.59;4203690;28;20023;-61
2023/01/17 06:35:12;;;;;;;;;;;;;;;4.75;73.04;97810.66;4205105;28;20431;-61
2023/01/17 06:37:15;;;;;;;;;;;;;;;4.77;73.16;97826.50;4203133;28;20027;-62
2023/01/17 06:39:17;;;;;;;;;;;;;;;4.77;72.74;97824.63;4205490;28;20015;-61
2023/01/17 06:41:19;;;;;;;;;;;;;;;4.80;72.90;97823.41;4204407;28;20011;-61
2023/01/17 06:43:21;;;;;;;;;;;;;;;4.79;72.57;97819.88;4204166;28;19928;-62
2023/01/17 06:45:23;;;;;;;;;;;;;;;4.77;72.63;97816.59;4205813;28;20023;-61
2023/01/17 06:47:25;;;;;;;;;;;;;;;4.80;72.60;97831.41;4205402;28;20011;-62
2023/01/17 06:49:27;;;;;;;;;;;;;;;4.80;72.39;97828.75;4204626;28;20023;-62
2023/01/17 06:51:29;;;;;;;;;;;;;;;4.84;72.04;97828.13;4203351;28;20027;-61
2023/01/17 06:53:32;;;;;;;;;;;;;;;4.82;71.97;97840.84;4204779;28;20018;-60
2023/01/17 06:55:34;;;;;;;;;;;;;;;4.84;71.96;97829.94;4204144;28;20011;-59
2023/01/17 06:57:36;;;;;;;;;;;;;;;4.85;71.78;97859.16;4202814;28;20626;-61
2023/01/17 06:59:38;;;;;;;;;;;;;;;4.82;72.19;97856.09;4204058;28;20007;-61
2023/01/17 07:01:40;;;;;;;;;;;;;;;4.81;71.96;97839.22;4200755;28;19947;-61
2023/01/17 07:03:42;;;;;;;;;;;;;;;4.82;72.13;97859.56;4203784;28;20015;-61
2023/01/17 07:05:44;;;;;;;;;;;;;;;4.85;71.67;97853.00;4189044;28;19929;-60
2023/01/17 07:07:47;;;;;;;;;;;;;;;4.83;71.76;97860.41;4190806;28;20015;-61
2023/01/17 07:09:50;;;;;;;;;;;;;;;4.81;71.68;97865.97;4194799;28;20031;-62
2023/01/17 07:11:58;;;;;;;;;;;;;;;4.78;72.00;97876.25;4190140;28;20015;-60
2023/01/17 07:14:00;;;;;;;;;;;;;;;4.75;71.95;97898.06;4192460;28;20027;-60
2023/01/17 07:16:02;;;;;;;;;;;;;;;4.75;72.18;97879.34;4189940;28;20025;-59
2023/01/17 07:18:04;;;;;;;;;;;;;;;4.76;72.05;97884.47;4201259;28;20019;-61
2023/01/17 07:20:06;;;;;;;;;;;;;;;4.76;71.98;97903.19;4205300;28;20019;-60
2023/01/17 07:22:09;;;;;;;;;;;;;;;4.76;71.92;97891.69;4204918;28;20022;-61
2023/01/17 07:24:11;;;;;;;;;;;;;;;4.74;72.09;97899.91;4205898;28;19978;-61
2023/01/17 07:26:16;;;;;;;;;;;;;;;4.76;72.00;97902.38;4205788;28;20039;-61
2023/01/17 07:28:17;;;;;;;;;;;;;;;4.75;71.83;97879.34;4202148;28;20023;-60
2023/01/17 07:30:20;;;;;;;;;;;;;;;4.74;72.25;97891.91;4203197;28;20390;-61
2023/01/17 07:32:22;;;;;;;;;;;;;;;4.77;72.26;97901.38;4202091;28;20588;-61
2023/01/17 07:34:24;;;;;;;;;;;;;;;4.74;72.19;97910.63;4203291;28;20023;-60
2023/01/17 07:36:26;;;;;;;;;;;;;;;4.75;72.40;97911.44;4205511;28;20027;-61
2023/01/17 07:38:28;;;;;;;;;;;;;;;4.73;72.17;97908.97;4203814;28;20017;-60
2023/01/17 07:40:30;;;;;;;;;;;;;;;4.73;72.55;97900.13;4187725;28;20023;-62
2023/01/17 07:42:33;;;;;;;;;;;;;;;4.70;72.73;97906.69;4187704;28;20044;-61
2023/01/17 07:44:35;;;;;;;;;;;;;;;4.70;73.01;97906.69;4188210;28;19928;-60
2023/01/17 07:46:37;;;;;;;;;;;;;;;4.71;73.19;97910.22;4187717;28;20023;-60
2023/01/17 07:48:39;;;;;;;;;;;;;;;4.72;72.97;97902.00;4204632;28;20018;-60
2023/01/17 07:50:41;;;;;;;;;;;;;;;4.71;73.27;97907.53;4205644;28;20035;-61
2023/01/17 07:52:43;;;;;;;;;;;;;;;4.73;73.16;97908.16;4205735;28;20023;-60
2023/01/17 07:54:45;;;;;;;;;;;;;;;4.71;73.29;97904.88;4205943;28;20014;-61
2023/01/17 07:56:47;;;;;;;;;;;;;;;4.72;73.11;97911.84;4205927;28;20028;-61
2023/01/17 07:58:51;;;;;;;;;;;;;;;4.73;72.94;97933.03;4205968;28;20011;-61
2023/01/17 08:00:53;;;;;;;;;;;;;;;4.73;72.83;97911.63;4204927;28;20098;-62
2023/01/17 08:02:55;;;;;;;;;;;;;;;4.74;72.73;97926.66;4203730;28;20023;-61
2023/01/17 08:04:57;;;;;;;;;;;;;;;4.71;72.78;97913.69;4205257;28;20364;-60
2023/01/17 08:06:59;;;;;;;;;;;;;;;4.73;72.70;97910.81;4203312;28;20030;-61
2023/01/17 08:09:01;;;;;;;;;;;;;;;4.71;72.69;97921.72;4205120;28;20027;-61
2023/01/17 08:11:03;;;;;;;;;;;;;;;4.72;72.64;97936.75;4204699;28;20020;-60
2023/01/17 08:13:05;;;;;;;;;;;;;;;4.71;72.39;97924.41;4205586;27;20024;-60
2023/01/17 08:15:09;;;;;;;;;;;;;;;4.72;72.30;97922.53;4206805;28;20441;-60
2023/01/17 08:17:12;;;;;;;;;;;;;;;4.74;72.36;97920.50;4206862;28;20454;-59
2023/01/17 08:19:15;;;;;;;;;;;;;;;4.72;71.99;97917.19;4205954;28;20488;-59
2023/01/17 08:21:17;;;;;;;;;;;;;;;4.74;71.93;97923.16;4220113;28;20006;-60
2023/01/17 08:23:20;;;;;;;;;;;;;;;4.72;71.55;97930.56;4205776;28;20015;-61
2023/01/17 08:25:22;;;;;;;;;;;;;;;4.73;71.61;97930.34;4220728;28;19957;-60
2023/01/17 08:27:24;;;;;;;;;;;;;;;4.74;71.51;97933.88;4205805;28;20358;-62
2023/01/17 08:29:26;;;;;;;;;;;;;;;4.75;71.40;97930.13;4207417;28;20027;-62
2023/01/17 08:31:30;;;;;;;;;;;;;;;4.78;71.29;97924.38;4207632;28;20027;-62
2023/01/17 08:33:32;;;;;;;;;;;;;;;4.81;71.08;97924.81;4204203;28;20148;-62
2023/01/17 08:35:34;;;;;;;;;;;;;;;4.80;70.98;97938.38;4207352;28;20030;-60
2023/01/17 08:37:37;;;;;;;;;;;;;;;4.79;70.98;97958.13;4198606;28;20015;-61
2023/01/17 08:39:39;;;;;;;;;;;;;;;4.81;70.71;97953.38;4190120;28;20023;-61
2023/01/17 08:41:41;;;;;;;;;;;;;;;4.83;70.63;97949.47;4188161;28;20036;-63
2023/01/17 08:43:43;;;;;;;;;;;;;;;4.83;70.47;97983.44;4189275;28;20024;-62
2023/01/17 08:45:45;;;;;;;;;;;;;;;4.82;70.48;97947.81;4189112;28;19925;-60
2023/01/17 08:47:49;;;;;;;;;;;;;;;4.82;70.45;97947.00;4188512;28;20019;-61
2023/01/17 08:49:51;;;;;;;;;;;;;;;4.83;70.28;97946.00;4188608;28;20008;-61
2023/01/17 08:51:53;;;;;;;;;;;;;;;4.84;70.38;97959.16;4187926;28;20465;-60
2023/01/17 08:53:55;;;;;;;;;;;;;;;4.85;70.30;97949.25;4188607;28;20024;-60
2023/01/17 08:55:58;;;;;;;;;;;;;;;4.84;70.25;97950.28;4190378;28;20008;-60
2023/01/17 08:58:00;;;;;;;;;;;;;;;4.86;70.52;97950.91;4188372;28;20015;-60
2023/01/17 09:00:02;;;;;;;;;;;;;;;4.85;70.06;97959.97;4188329;28;20028;-61
2023/01/17 09:02:13;;;;;;;;;;;;;;;4.85;69.84;97958.09;4187581;28;20801;-61
2023/01/17 09:04:16;;;;;;;;;;;;;;;4.88;70.07;97980.94;4188531;28;20024;-61
2023/01/17 09:06:18;;;;;;;;;;;;;;;4.91;69.91;97967.16;4188393;28;19932;-61
2023/01/17 09:08:20;;;;;;;;;;;;;;;4.90;69.66;97968.16;4186999;28;19996;-61
2023/01/17 09:10:23;;;;;;;;;;;;;;;4.90;69.36;97970.84;4188261;28;20027;-62
2023/01/17 09:12:25;;;;;;;;;;;;;;;4.91;69.47;97985.06;4188078;28;20155;-61
2023/01/17 09:14:27;;;;;;;;;;;;;;;4.94;69.48;97990.00;4189274;28;20355;-61
2023/01/17 09:16:29;;;;;;;;;;;;;;;4.93;68.93;97978.47;4188215;28;20015;-61
2023/01/17 09:18:31;;;;;;;;;;;;;;;4.91;68.81;97996.56;4184047;28;20031;-62
2023/01/17 09:20:34;;;;;;;;;;;;;;;4.92;69.05;97986.69;4185888;28;20007;-62
2023/01/17 09:22:37;;;;;;;;;;;;;;;4.91;69.15;98003.78;4185606;28;20004;-62
2023/01/17 09:24:40;;;;;;;;;;;;;;;4.92;68.80;98014.28;4186282;28;20642;-62
2023/01/17 09:26:42;;;;;;;;;;;;;;;4.93;68.60;97999.84;4185234;28;20036;-60
2023/01/17 09:28:44;;;;;;;;;;;;;;;4.92;68.49;97994.72;4187152;28;20028;-60
2023/01/17 09:30:45;;;;;;;;;;;;;;;4.94;68.72;97998.84;4187442;28;20011;-62
2023/01/17 09:32:52;;;;;;;;;;;;;;;4.93;68.60;98005.19;4186776;28;20019;-61
2023/01/17 09:34:56;;;;;;;;;;;;;;;4.93;68.53;98007.88;4188740;28;20011;-62
2023/01/17 09:37:00;;;;;;;;;;;;;;;4.93;68.62;98026.59;4187288;28;20035;-62
2023/01/17 09:39:02;;;;;;;;;;;;;;;4.92;68.88;98014.28;4187836;28;20020;-60
2023/01/17 09:41:04;;;;;;;;;;;;;;;4.94;68.56;98025.59;4186863;28;20027;-61
2023/01/17 09:43:07;;;;;;;;;;;;;;;4.92;68.49;98027.66;4187128;28;20018;-61
2023/01/17 09:45:10;;;;;;;;;;;;;;;4.90;68.73;98023.53;4188080;28;20360;-62
2023/01/17 09:47:28;;;;;;;;;;;;;;;4.87;68.89;98033.63;4186260;28;19931;-61
2023/01/17 09:49:32;;;;;;;;;;;;;;;4.90;68.96;98035.03;4186600;28;20019;-62
2023/01/17 09:51:34;;;;;;;;;;;;;;;4.92;69.20;98024.97;4187279;28;20012;-62
2023/01/17 09:53:37;;;;;;;;;;;;;;;4.94;68.73;98038.97;4185751;28;22255;-60
2023/01/17 09:55:40;;;;;;;;;;;;;;;4.92;69.00;98046.38;4188008;28;20043;-62
2023/01/17 09:57:44;;;;;;;;;;;;;;;4.92;69.00;98058.91;4186503;28;20012;-61
2023/01/17 09:59:48;;;;;;;;;;;;;;;4.92;69.03;98057.06;4187503;28;20419;-62
2023/01/17 10:01:52;;;;;;;;;;;;;;;4.91;69.00;98049.25;4201355;28;20027;-62
2023/01/17 10:04:02;;;;;;;;;;;;;;;4.84;69.25;98057.25;4187545;28;20350;-61
2023/01/17 10:06:10;;;;;;;;;;;;;;;4.82;69.80;98065.47;4187966;28;20367;-62
2023/01/17 10:08:17;;;;;;;;;;;;;;;4.79;70.38;98083.81;4186817;28;19962;-61
2023/01/17 10:10:24;;;;;;;;;;;;;;;4.80;70.31;98078.25;4187864;28;20027;-61
2023/01/17 10:12:29;;;;;;;;;;;;;;;4.79;70.46;98086.47;4186912;28;20019;-62
2023/01/17 10:14:36;;;;;;;;;;;;;;;4.77;70.98;98091.22;4185637;28;20023;-62
2023/01/17 10:16:40;;;;;;;;;;;;;;;4.76;71.04;98084.22;4186727;28;20646;-61
2023/01/17 10:18:58;;;;;;;;;;;;;;;4.74;71.18;98088.94;4188480;28;20370;-60
2023/01/17 10:21:02;;;;;;;;;;;;;;;4.73;71.58;98088.09;4187547;28;20024;-62
2023/01/17 10:23:07;;;;;;;;;;;;;;;4.73;71.75;98085.44;4186829;28;20008;-61
2023/01/17 10:25:16;;;;;;;;;;;;;;;4.68;71.79;98077.22;4188110;28;20028;-62
2023/01/17 10:27:20;;;;;;;;;;;;;;;4.71;71.88;98105.41;4186863;28;20012;-61
2023/01/17 10:29:22;;;;;;;;;;;;;;;4.65;71.96;98104.34;4187856;28;19963;-61
2023/01/17 10:31:24;;;;;;;;;;;;;;;4.64;71.92;98116.91;4187398;28;20011;-62
2023/01/17 10:33:28;;;;;;;;;;;;;;;4.66;72.02;98122.03;4186041;28;20019;-62
2023/01/17 10:35:31;;;;;;;;;;;;;;;4.66;71.89;98108.69;4186903;28;20015;-62
2023/01/17 10:37:35;;;;;;;;;;;;;;;4.64;71.57;98108.03;4187121;28;20484;-62
2023/01/17 10:39:37;;;;;;;;;;;;;;;4.61;71.68;98122.66;4190625;28;20023;-62
2023/01/17 10:41:39;;;;;;;;;;;;;;;4.61;71.86;98122.66;4188797;28;20027;-62
2023/01/17 10:43:46;;;;;;;;;;;;;;;4.65;71.58;98121.22;4190238;28;20023;-60
2023/01/17 10:45:49;;;;;;;;;;;;;;;4.66;71.73;98116.69;4190116;28;20430;-61
2023/01/17 10:47:52;;;;;;;;;;;;;;;4.67;71.73;98137.03;4189316;28;20043;-62
2023/01/17 10:49:56;;;;;;;;;;;;;;;4.64;71.45;98132.94;4190684;28;20394;-61
2023/01/17 10:52:00;;;;;;;;;;;;;;;4.59;71.59;98132.75;4204695;28;20015;-62
2023/01/17 10:54:06;;;;;;;;;;;;;;;4.55;71.57;98136.00;4190360;28;20015;-60
2023/01/17 10:56:08;;;;;;;;;;;;;;;4.55;71.93;98142.19;4190307;28;20015;-59
2023/01/17 10:58:10;;;;;;;;;;;;;;;4.54;71.81;98135.16;4189697;28;20019;-61
2023/01/17 11:00:30;;;;;;;;;;;;;;;4.55;71.96;98133.34;4190680;28;20352;-58
2023/01/17 11:02:34;;;;;;;;;;;;;;;4.55;71.79;98150.19;4179715;28;20007;-61
2023/01/17 11:04:37;;;;;;;;;;;;;;;4.57;71.75;98145.47;4190128;28;20394;-60
2023/01/17 11:06:41;;;;;;;;;;;;;;;4.58;71.77;98143.63;4189419;28;20023;-61
2023/01/17 11:08:50;;;;;;;;;;;;;;;4.55;71.76;98144.03;4190153;28;20023;-61
2023/01/17 11:10:53;;;;;;;;;;;;;;;4.55;71.83;98152.88;4189926;28;19940;-62
2023/01/17 11:12:55;;;;;;;;;;;;;;;4.49;72.00;98145.66;4189222;28;20434;-61
2023/01/17 11:15:01;;;;;;;;;;;;;;;4.53;72.51;98160.28;4190228;28;20024;-64
2023/01/17 11:17:04;;;;;;;;;;;;;;;4.51;72.96;98159.63;4189996;28;20020;-61
2023/01/17 11:19:11;;;;;;;;;;;;;;;4.49;73.50;98159.84;4190077;28;20019;-62
2023/01/17 11:21:15;;;;;;;;;;;;;;;4.48;73.77;98152.84;4188877;28;20019;-61
2023/01/17 11:23:17;;;;;;;;;;;;;;;4.46;74.32;98148.72;4189115;28;20046;-62
2023/01/17 11:25:20;;;;;;;;;;;;;;;4.42;74.42;98159.00;4190064;28;20018;-60
2023/01/17 11:27:23;;;;;;;;;;;;;;;4.43;74.55;98159.81;4189301;28;20039;-62
2023/01/17 11:29:28;;;;;;;;;;;;;;;4.44;74.36;98159.63;4190518;28;20015;-60
2023/01/17 11:31:30;;;;;;;;;;;;;;;4.44;74.49;98162.28;4189755;28;20370;-62
2023/01/17 11:33:44;;;;;;;;;;;;;;;4.46;74.18;98160.22;4189338;28;20023;-61
2023/01/17 11:35:47;;;;;;;;;;;;;;;4.49;74.03;98178.53;4190175;28;20011;-60
2023/01/17 11:37:51;;;;;;;;;;;;;;;4.45;73.80;98171.13;4204031;28;20027;-62
2023/01/17 11:39:53;;;;;;;;;;;;;;;4.45;74.12;98179.16;4189934;28;20016;-59
2023/01/17 11:41:55;;;;;;;;;;;;;;;4.45;74.35;98174.63;4189335;28;20047;-62
2023/01/17 11:43:57;;;;;;;;;;;;;;;4.48;74.34;98187.59;4189521;28;20631;-62
2023/01/17 11:46:00;;;;;;;;;;;;;;;4.50;74.07;98185.53;4189652;28;20003;-61
2023/01/17 11:48:13;;;;;;;;;;;;;;;4.50;73.90;98184.72;4188591;28;20036;-61
2023/01/17 11:50:22;;;;;;;;;;;;;;;4.46;73.79;98194.16;4188819;28;20023;-61
2023/01/17 11:52:33;;;;;;;;;;;;;;;4.43;73.65;98214.09;4203896;28;20386;-60
2023/01/17 11:54:38;;;;;;;;;;;;;;;4.43;73.78;98211.41;4189935;28;19995;-61
2023/01/17 11:56:43;;;;;;;;;;;;;;;4.38;73.94;98205.84;4188965;28;20016;-60
2023/01/17 11:58:46;;;;;;;;;;;;;;;4.30;74.66;98212.19;4189706;28;20023;-61
2023/01/17 12:00:48;;;;;;;;;;;;;;;4.23;74.79;98213.19;4187488;28;20023;-60
2023/01/17 12:03:00;;;;;;;;;;;;;;;4.21;75.43;98218.72;4188413;28;20387;-60
2023/01/17 12:05:05;;;;;;;;;;;;;;;4.18;75.44;98212.94;4188068;28;20012;-61
2023/01/17 12:07:18;;;;;;;;;;;;;;;4.18;75.84;98213.78;4188044;28;20015;-61
2023/01/17 12:09:22;;;;;;;;;;;;;;;4.14;76.00;98218.69;4189422;28;20012;-62
2023/01/17 12:11:26;;;;;;;;;;;;;;;4.18;75.92;98207.59;4189215;28;20055;-61
2023/01/17 12:15:58;;;;;;;;;;;;;;;4.24;75.81;98212.97;4188521;28;20024;-62